Time;durP1;ratioP1;P1;durP2;ratioP2;P2;SDS_P1;SDS_P2;PMS_P1;PMS_P2;Temp;Humidity;BMP_temperature;BMP_pressure;BME280_temperature;BME280_humidity;BME280_pressure;Samples;Min_cycle;Max_cycle;Signal;HPM_P1;HPM_P2
2021/01/01 00:01:37;;;;;;;24.70;17.10;;;3.60;99.90;;;;;;4987404;28;20220;-49
2021/01/01 00:04:04;;;;;;;25.73;16.47;;;3.60;99.90;;;;;;5000329;28;20564;-52
2021/01/01 00:06:30;;;;;;;26.33;17.07;;;3.60;99.90;;;;;;4999390;28;20286;-50
2021/01/01 00:08:56;;;;;;;23.57;15.67;;;3.60;99.90;;;;;;5004883;28;20240;-50
2021/01/01 00:11:22;;;;;;;25.67;15.53;;;3.60;99.90;;;;;;4999340;28;20196;-47
2021/01/01 00:13:47;;;;;;;25.33;15.43;;;3.60;99.90;;;;;;5005158;28;20177;-51
2021/01/01 00:16:14;;;;;;;24.10;15.63;;;3.50;99.90;;;;;;4989904;28;20200;-50
2021/01/01 00:18:40;;;;;;;23.47;15.83;;;3.50;99.90;;;;;;4995586;28;20185;-50
2021/01/01 00:21:06;;;;;;;24.97;15.00;;;3.60;99.90;;;;;;5000273;28;20302;-49
2021/01/01 00:23:32;;;;;;;25.60;15.40;;;3.60;99.90;;;;;;4999169;28;20897;-47
2021/01/01 00:25:57;;;;;;;20.97;14.13;;;3.60;99.90;;;;;;5001980;28;20246;-50
2021/01/01 00:28:23;;;;;;;27.07;15.10;;;3.50;99.90;;;;;;4999568;28;20179;-48
2021/01/01 00:30:48;;;;;;;20.83;13.83;;;3.50;99.90;;;;;;5003157;28;20200;-47
2021/01/01 00:33:14;;;;;;;22.87;14.13;;;3.50;99.90;;;;;;4984055;28;20200;-50
2021/01/01 00:35:40;;;;;;;23.00;13.30;;;3.50;99.90;;;;;;5002431;28;20239;-51
2021/01/01 00:38:06;;;;;;;19.00;12.63;;;3.50;99.90;;;;;;5001839;28;20188;-49
2021/01/01 00:40:31;;;;;;;22.57;14.80;;;3.50;99.90;;;;;;5005968;28;20200;-47
2021/01/01 00:42:57;;;;;;;21.83;15.53;;;3.40;99.90;;;;;;5003316;28;20300;-48
2021/01/01 00:45:22;;;;;;;20.03;13.37;;;3.40;99.90;;;;;;4996967;28;20192;-49
2021/01/01 00:47:48;;;;;;;21.87;13.97;;;3.40;99.90;;;;;;5000846;28;20290;-49
2021/01/01 00:50:14;;;;;;;24.73;15.10;;;3.40;99.90;;;;;;4984086;28;20204;-47
2021/01/01 00:52:40;;;;;;;24.13;14.50;;;3.40;99.90;;;;;;5003919;28;20184;-45
2021/01/01 00:55:07;;;;;;;19.73;13.67;;;3.40;99.90;;;;;;5012051;28;20204;-49
2021/01/01 00:57:32;;;;;;;21.73;14.53;;;3.40;99.90;;;;;;4999520;28;20199;-48
2021/01/01 00:59:58;;;;;;;24.30;14.80;;;3.40;99.90;;;;;;4994209;28;20216;-47
2021/01/01 01:02:24;;;;;;;21.83;14.03;;;3.40;99.90;;;;;;4992321;28;20733;-47
2021/01/01 01:04:49;;;;;;;22.27;12.40;;;3.40;99.90;;;;;;4986140;28;20193;-48
2021/01/01 01:07:15;;;;;;;23.53;14.67;;;3.40;99.90;;;;;;4998054;28;20201;-49
2021/01/01 01:09:40;;;;;;;19.40;13.23;;;3.40;99.90;;;;;;4999960;28;20177;-50
2021/01/01 01:12:06;;;;;;;19.77;12.77;;;3.40;99.90;;;;;;4995254;28;20737;-53
2021/01/01 01:14:31;;;;;;;21.93;13.63;;;3.40;99.90;;;;;;5004303;28;20177;-47
2021/01/01 01:16:57;;;;;;;19.87;12.57;;;3.40;99.90;;;;;;4998859;28;20705;-46
2021/01/01 01:19:22;;;;;;;20.47;13.07;;;3.40;99.90;;;;;;5001961;28;20203;-49
2021/01/01 01:21:48;;;;;;;18.57;12.37;;;3.40;99.90;;;;;;4998288;28;20202;-47
2021/01/01 01:24:13;;;;;;;18.23;12.03;;;3.40;99.90;;;;;;4994160;28;20399;-46
2021/01/01 01:26:39;;;;;;;20.53;11.77;;;3.40;99.90;;;;;;5000499;28;20618;-48
2021/01/01 01:29:05;;;;;;;20.53;12.43;;;3.40;99.90;;;;;;4999530;28;20721;-47
2021/01/01 01:31:30;;;;;;;20.73;12.30;;;3.40;99.90;;;;;;5001584;28;20200;-50
2021/01/01 01:33:56;;;;;;;21.93;12.00;;;3.40;99.90;;;;;;4999428;28;20719;-49
2021/01/01 01:36:21;;;;;;;21.57;12.57;;;3.40;99.90;;;;;;4989453;28;20196;-50
2021/01/01 01:38:47;;;;;;;17.07;11.30;;;3.40;99.90;;;;;;4998027;28;20202;-47
2021/01/01 01:41:12;;;;;;;16.93;10.83;;;3.40;99.90;;;;;;5000286;28;20208;-48
2021/01/01 01:43:38;;;;;;;18.70;11.43;;;3.40;99.90;;;;;;5001355;28;20193;-48
2021/01/01 01:46:03;;;;;;;18.40;11.67;;;3.40;99.90;;;;;;4996412;28;20214;-47
2021/01/01 01:48:32;;;;;;;19.00;12.67;;;3.40;99.90;;;;;;5001857;28;20189;-48
2021/01/01 01:50:59;;;;;;;18.13;11.43;;;3.40;99.90;;;;;;4985083;28;20426;-50
2021/01/01 01:53:25;;;;;;;16.97;11.13;;;3.40;99.90;;;;;;4997107;28;20196;-47
2021/01/01 01:55:52;;;;;;;18.00;11.43;;;3.40;99.90;;;;;;4999276;28;20641;-46
2021/01/01 01:58:21;;;;;;;20.30;11.87;;;3.40;99.90;;;;;;4998851;28;20200;-46
2021/01/01 02:00:57;;;;;;;18.63;11.73;;;3.40;99.90;;;;;;4999677;28;20259;-47
2021/01/01 02:03:24;;;;;;;18.07;11.23;;;3.40;99.90;;;;;;5000308;28;20184;-47
2021/01/01 02:05:49;;;;;;;21.10;10.80;;;3.40;99.90;;;;;;4990903;28;20215;-47
2021/01/01 02:08:15;;;;;;;17.50;10.80;;;3.40;99.90;;;;;;4995950;28;20914;-50
2021/01/01 02:10:41;;;;;;;18.10;11.37;;;3.40;99.90;;;;;;5002127;28;20755;-48
2021/01/01 02:13:08;;;;;;;18.97;11.77;;;3.40;99.90;;;;;;4996822;28;20404;-48
2021/01/01 02:15:33;;;;;;;17.50;10.97;;;3.40;99.90;;;;;;5002710;28;20573;-47
2021/01/01 02:17:59;;;;;;;16.90;11.13;;;3.40;99.90;;;;;;4996413;28;20173;-50
2021/01/01 02:20:25;;;;;;;21.60;11.33;;;3.40;99.90;;;;;;5003011;28;20688;-49
2021/01/01 02:22:51;;;;;;;17.83;11.93;;;3.40;99.90;;;;;;4990408;28;20192;-46
2021/01/01 02:25:17;;;;;;;20.77;12.70;;;3.40;99.90;;;;;;4999741;28;20196;-48
2021/01/01 02:27:42;;;;;;;17.97;11.93;;;3.40;99.90;;;;;;5002352;28;20239;-47
2021/01/01 02:30:08;;;;;;;16.13;10.70;;;3.40;99.90;;;;;;4993277;28;20212;-49
2021/01/01 02:32:34;;;;;;;15.60;10.77;;;3.40;99.90;;;;;;4999321;28;20185;-46
2021/01/01 02:35:00;;;;;;;17.53;11.67;;;3.40;99.90;;;;;;5000248;28;20374;-50
2021/01/01 02:37:26;;;;;;;18.47;11.43;;;3.40;99.90;;;;;;4990935;28;20189;-48
2021/01/01 02:39:52;;;;;;;20.47;11.93;;;3.40;99.90;;;;;;4996011;28;20204;-49
2021/01/01 02:42:17;;;;;;;19.53;12.80;;;3.40;99.90;;;;;;5001222;28;20622;-49
2021/01/01 02:44:43;;;;;;;20.80;12.03;;;3.40;99.90;;;;;;4997878;28;20279;-49
2021/01/01 02:47:10;;;;;;;17.97;11.90;;;3.40;99.90;;;;;;4999442;28;20328;-48
2021/01/01 02:49:35;;;;;;;19.30;11.27;;;3.40;99.90;;;;;;4999187;28;20177;-47
2021/01/01 02:52:01;;;;;;;17.63;11.87;;;3.40;99.90;;;;;;4999024;28;20188;-47
2021/01/01 02:54:27;;;;;;;24.80;12.33;;;3.40;99.90;;;;;;4991459;28;20195;-49
2021/01/01 02:56:52;;;;;;;26.00;13.37;;;3.40;99.90;;;;;;4997352;28;20834;-50
2021/01/01 02:59:19;;;;;;;19.07;11.90;;;3.40;99.90;;;;;;5000618;28;20203;-46
2021/01/01 03:01:44;;;;;;;18.67;11.93;;;3.40;99.90;;;;;;4998259;28;20307;-48
2021/01/01 03:04:10;;;;;;;20.03;12.60;;;3.40;99.90;;;;;;5000648;28;20280;-48
2021/01/01 03:06:36;;;;;;;18.73;12.00;;;3.40;99.90;;;;;;5000002;28;20212;-49
2021/01/01 03:09:03;;;;;;;18.23;12.17;;;3.40;99.90;;;;;;4987677;28;20798;-46
2021/01/01 03:11:29;;;;;;;20.57;13.10;;;3.40;99.90;;;;;;5000118;28;20211;-47
2021/01/01 03:13:54;;;;;;;19.40;12.00;;;3.40;99.90;;;;;;4999813;28;20180;-48
2021/01/01 03:16:20;;;;;;;18.63;12.93;;;3.40;99.90;;;;;;5002833;28;20668;-49
2021/01/01 03:18:45;;;;;;;22.90;13.67;;;3.40;99.90;;;;;;4999307;28;20207;-48
2021/01/01 03:21:11;;;;;;;22.63;12.90;;;3.40;99.90;;;;;;5004316;28;20200;-47
2021/01/01 03:23:36;;;;;;;21.13;12.87;;;3.40;99.90;;;;;;4999635;28;20188;-51
2021/01/01 03:26:02;;;;;;;19.50;12.90;;;3.40;99.90;;;;;;4996937;28;20430;-45
2021/01/01 03:28:27;;;;;;;21.53;12.47;;;3.40;99.90;;;;;;5005007;28;20654;-47
2021/01/01 03:30:53;;;;;;;21.57;13.27;;;3.40;99.90;;;;;;5000010;28;20449;-47
2021/01/01 03:33:19;;;;;;;22.57;13.10;;;3.40;99.90;;;;;;5002842;28;20185;-51
2021/01/01 03:35:44;;;;;;;22.37;13.90;;;3.50;99.90;;;;;;5000967;28;20168;-50
2021/01/01 03:38:10;;;;;;;23.53;13.13;;;3.40;99.90;;;;;;5004820;28;20194;-49
2021/01/01 03:40:35;;;;;;;21.37;13.43;;;3.40;99.90;;;;;;4989371;28;20213;-47
2021/01/01 03:43:00;;;;;;;23.77;13.40;;;3.40;99.90;;;;;;5000925;28;20322;-48
2021/01/01 03:45:28;;;;;;;23.40;13.43;;;3.40;99.90;;;;;;5005570;28;20245;-47
2021/01/01 03:47:54;;;;;;;26.20;14.43;;;3.40;99.90;;;;;;4999232;28;20720;-48
2021/01/01 03:50:19;;;;;;;22.10;12.97;;;3.50;99.90;;;;;;5003299;28;20330;-50
2021/01/01 03:52:45;;;;;;;23.43;13.63;;;3.40;99.90;;;;;;5000549;28;20264;-48
2021/01/01 03:55:10;;;;;;;22.67;13.73;;;3.40;99.90;;;;;;5001638;28;20177;-51
2021/01/01 03:57:36;;;;;;;23.13;14.83;;;3.40;99.90;;;;;;4991956;28;20262;-51
2021/01/01 04:00:04;;;;;;;24.80;13.53;;;3.50;99.90;;;;;;5000506;28;20467;-46
2021/01/01 04:02:30;;;;;;;23.97;13.07;;;3.40;99.90;;;;;;5004643;28;20242;-46
2021/01/01 04:04:56;;;;;;;20.93;13.13;;;3.50;99.90;;;;;;5001542;28;20185;-48
2021/01/01 04:07:21;;;;;;;26.20;13.27;;;3.50;99.90;;;;;;5004119;28;20231;-48
2021/01/01 04:09:47;;;;;;;27.60;13.40;;;3.40;99.90;;;;;;5000887;28;20213;-48
2021/01/01 04:12:12;;;;;;;21.90;13.03;;;3.40;99.90;;;;;;4993122;28;20185;-46
2021/01/01 04:14:37;;;;;;;26.37;14.30;;;3.40;99.90;;;;;;5001715;28;20181;-48
2021/01/01 04:17:03;;;;;;;27.07;14.10;;;3.40;99.90;;;;;;5001985;28;20795;-51
2021/01/01 04:19:28;;;;;;;22.70;13.20;;;3.40;99.90;;;;;;5003902;28;20215;-50
2021/01/01 04:21:54;;;;;;;25.70;13.90;;;3.40;99.90;;;;;;5000006;28;20422;-49
2021/01/01 04:24:19;;;;;;;26.43;14.37;;;3.40;99.90;;;;;;5004134;28;20184;-49
2021/01/01 04:26:45;;;;;;;24.07;14.43;;;3.40;99.90;;;;;;5000678;28;20548;-47
2021/01/01 04:29:11;;;;;;;28.00;15.67;;;3.40;99.90;;;;;;4990885;28;20188;-48
2021/01/01 04:31:37;;;;;;;31.70;15.50;;;3.40;99.90;;;;;;5002663;28;20203;-48
2021/01/01 04:34:04;;;;;;;23.97;14.90;;;3.40;99.90;;;;;;5000538;28;20181;-49
2021/01/01 04:36:29;;;;;;;31.00;16.40;;;3.40;99.90;;;;;;5002833;28;20195;-49
2021/01/01 04:38:55;;;;;;;25.50;15.50;;;3.40;99.90;;;;;;4997542;28;20680;-45
2021/01/01 04:41:21;;;;;;;28.07;15.23;;;3.40;99.90;;;;;;5002498;28;20812;-47
2021/01/01 04:43:49;;;;;;;26.10;13.70;;;3.40;99.90;;;;;;4989364;28;20192;-49
2021/01/01 04:46:15;;;;;;;22.77;14.20;;;3.40;99.90;;;;;;4991408;28;20205;-50
2021/01/01 04:48:43;;;;;;;26.17;14.27;;;3.40;99.90;;;;;;5000870;28;20184;-48
2021/01/01 04:51:08;;;;;;;24.77;14.30;;;3.30;99.90;;;;;;5000373;28;20566;-47
2021/01/01 04:53:37;;;;;;;26.40;14.13;;;3.30;99.90;;;;;;5002080;28;20187;-48
2021/01/01 04:56:04;;;;;;;26.60;14.63;;;3.30;99.90;;;;;;5000834;28;20287;-45
2021/01/01 04:58:30;;;;;;;23.40;14.13;;;3.30;99.90;;;;;;5002301;28;20279;-50
2021/01/01 05:00:55;;;;;;;29.23;16.27;;;3.30;99.90;;;;;;4980650;28;20250;-48
2021/01/01 05:03:21;;;;;;;27.33;16.13;;;3.20;99.90;;;;;;5000892;28;20188;-50
2021/01/01 05:05:53;;;;;;;28.27;15.17;;;3.20;99.90;;;;;;4996617;28;20197;-49
2021/01/01 05:08:19;;;;;;;32.87;16.23;;;3.20;99.90;;;;;;4998762;28;20209;-49
2021/01/01 05:10:46;;;;;;;27.63;16.20;;;3.20;99.90;;;;;;4998757;28;20193;-47
2021/01/01 05:13:13;;;;;;;32.27;16.10;;;3.30;99.90;;;;;;5001590;28;20188;-49
2021/01/01 05:15:39;;;;;;;30.20;17.10;;;3.20;99.90;;;;;;4989433;28;21068;-49
2021/01/01 05:18:20;;;;;;;26.03;15.23;;;3.20;99.90;;;;;;5002345;28;20187;-47
2021/01/01 05:20:46;;;;;;;30.07;16.63;;;3.30;99.90;;;;;;5000688;28;20277;-50
2021/01/01 05:23:21;;;;;;;30.80;16.43;;;3.20;99.90;;;;;;4997234;28;20653;-47
2021/01/01 05:25:48;;;;;;;28.77;15.37;;;3.20;99.90;;;;;;5000984;28;20490;-47
2021/01/01 05:28:14;;;;;;;29.40;15.17;;;3.10;99.90;;;;;;5001363;28;20216;-47
2021/01/01 05:30:40;;;;;;;28.70;15.37;;;3.10;99.90;;;;;;4997572;28;20486;-47
2021/01/01 05:33:07;;;;;;;23.33;14.77;;;3.10;99.90;;;;;;4992228;28;20181;-46
2021/01/01 05:35:33;;;;;;;27.50;15.03;;;3.10;99.90;;;;;;4997651;28;20173;-49
2021/01/01 05:38:15;;;;;;;25.53;14.20;;;3.00;99.90;;;;;;4997394;28;20219;-48
2021/01/01 05:40:41;;;;;;;28.77;15.33;;;3.00;99.90;;;;;;4999196;28;20422;-50
2021/01/01 05:43:17;;;;;;;23.43;14.13;;;3.00;99.90;;;;;;5003693;28;20235;-49
2021/01/01 05:45:43;;;;;;;27.93;15.00;;;3.00;99.90;;;;;;5001607;28;20810;-50
2021/01/01 05:48:09;;;;;;;26.47;14.87;;;3.00;99.90;;;;;;4992977;28;20217;-49
2021/01/01 05:50:35;;;;;;;25.50;14.70;;;3.00;99.90;;;;;;4996886;28;20419;-46
2021/01/01 05:53:18;;;;;;;25.50;14.30;;;3.00;99.90;;;;;;4998564;28;20587;-47
2021/01/01 05:55:45;;;;;;;29.10;14.30;;;3.00;99.90;;;;;;4999195;28;20684;-48
2021/01/01 05:58:24;;;;;;;32.33;17.07;;;3.00;99.90;;;;;;4999130;28;20219;-47
2021/01/01 06:00:56;;;;;;;32.00;15.57;;;3.00;99.90;;;;;;4993980;28;20282;-47
2021/01/01 06:03:23;;;;;;;25.13;13.90;;;3.00;99.90;;;;;;4979808;28;20258;-48
2021/01/01 06:05:57;;;;;;;23.83;13.37;;;3.00;99.90;;;;;;5001350;28;20550;-46
2021/01/01 06:08:24;;;;;;;29.13;14.60;;;3.00;99.90;;;;;;4995717;28;20176;-47
2021/01/01 06:10:52;;;;;;;24.30;13.53;;;3.00;99.90;;;;;;5000439;28;20235;-50
2021/01/01 06:13:19;;;;;;;25.63;14.73;;;3.00;99.90;;;;;;5000317;28;20212;-46
2021/01/01 06:15:56;;;;;;;24.57;13.13;;;2.90;99.90;;;;;;5002066;28;20208;-48
2021/01/01 06:18:30;;;;;;;28.70;14.20;;;2.90;99.90;;;;;;4992798;28;20185;-46
2021/01/01 06:21:06;;;;;;;20.33;13.10;;;2.90;99.90;;;;;;4995977;28;20209;-53
2021/01/01 06:23:33;;;;;;;22.47;13.23;;;3.00;99.90;;;;;;5000528;28;20400;-50
2021/01/01 06:26:00;;;;;;;28.10;13.10;;;2.90;99.90;;;;;;4998143;28;20264;-51
2021/01/01 06:28:26;;;;;;;22.23;13.37;;;2.90;99.90;;;;;;4997628;28;20191;-47
2021/01/01 06:30:54;;;;;;;25.33;13.93;;;3.00;99.90;;;;;;5001855;28;20197;-51
2021/01/01 06:33:20;;;;;;;23.80;13.00;;;3.00;99.90;;;;;;4997308;28;20201;-46
2021/01/01 06:35:46;;;;;;;27.13;14.10;;;2.90;99.90;;;;;;4991156;28;20189;-48
2021/01/01 06:38:31;;;;;;;26.50;15.03;;;2.90;99.90;;;;;;5001853;28;20552;-46
2021/01/01 06:40:57;;;;;;;25.43;14.23;;;2.90;99.90;;;;;;4993449;28;20218;-45
2021/01/01 06:43:49;;;;;;;27.70;14.20;;;3.00;99.90;;;;;;4997614;28;20184;-49
2021/01/01 06:46:14;;;;;;;25.20;14.30;;;3.00;99.90;;;;;;4999486;28;20193;-49
2021/01/01 06:48:40;;;;;;;26.87;14.07;;;3.00;99.90;;;;;;5002428;28;20189;-50
2021/01/01 06:51:14;;;;;;;25.30;14.10;;;3.00;99.90;;;;;;4994752;28;20209;-45
2021/01/01 06:53:41;;;;;;;28.50;14.83;;;3.00;99.90;;;;;;5004012;28;20454;-50
2021/01/01 06:56:11;;;;;;;24.30;14.47;;;2.90;99.90;;;;;;5002078;28;20194;-49
2021/01/01 06:58:37;;;;;;;27.27;13.50;;;2.90;99.90;;;;;;4999653;28;20391;-47
2021/01/01 07:01:03;;;;;;;29.67;14.07;;;2.90;99.90;;;;;;5002553;28;20208;-48
2021/01/01 07:03:32;;;;;;;28.07;15.40;;;2.90;99.90;;;;;;5002617;28;20559;-51
2021/01/01 07:06:01;;;;;;;26.97;13.67;;;2.90;99.90;;;;;;4997744;28;20192;-49
2021/01/01 07:08:44;;;;;;;25.73;13.47;;;2.90;99.90;;;;;;5001712;28;20191;-46
2021/01/01 07:11:13;;;;;;;27.47;13.23;;;2.90;99.90;;;;;;5002352;28;20213;-47
2021/01/01 07:14:11;;;;;;;26.03;13.23;;;2.90;99.90;;;;;;5002542;28;20387;-51
2021/01/01 07:16:50;;;;;;;22.43;12.50;;;2.90;99.90;;;;;;5001507;28;20390;-50
2021/01/01 07:19:16;;;;;;;21.73;12.40;;;2.80;99.90;;;;;;5004330;28;20218;-48
2021/01/01 07:21:41;;;;;;;26.33;13.03;;;2.80;99.90;;;;;;4994268;28;20216;-52
2021/01/01 07:24:07;;;;;;;28.20;13.63;;;2.80;99.90;;;;;;5005713;28;20184;-51
2021/01/01 07:26:33;;;;;;;23.57;13.47;;;2.80;99.90;;;;;;4999151;28;20223;-52
2021/01/01 07:29:00;;;;;;;25.97;14.13;;;2.80;99.90;;;;;;5004488;28;20195;-48
2021/01/01 07:31:26;;;;;;;21.97;13.13;;;2.70;99.90;;;;;;5000486;28;20204;-46
2021/01/01 07:33:52;;;;;;;22.47;12.83;;;2.70;99.90;;;;;;5000488;28;20176;-48
2021/01/01 07:36:18;;;;;;;26.63;14.73;;;2.70;99.90;;;;;;4996572;28;20680;-47
2021/01/01 07:38:48;;;;;;;27.70;13.93;;;2.60;99.90;;;;;;4996677;28;20490;-46
2021/01/01 07:41:16;;;;;;;23.33;13.10;;;2.60;99.90;;;;;;5002472;28;20212;-47
2021/01/01 07:43:41;;;;;;;28.13;14.63;;;2.60;99.90;;;;;;4997899;28;20444;-49
2021/01/01 07:46:09;;;;;;;27.47;14.93;;;2.70;99.90;;;;;;4999566;28;20195;-47
2021/01/01 07:48:36;;;;;;;27.70;13.67;;;2.60;99.90;;;;;;4997894;28;20330;-46
2021/01/01 07:51:10;;;;;;;25.70;12.70;;;2.70;99.90;;;;;;4996148;28;20247;-49
2021/01/01 07:53:37;;;;;;;24.43;13.70;;;2.60;99.90;;;;;;4993970;28;20200;-48
2021/01/01 07:56:06;;;;;;;25.30;14.20;;;2.60;99.90;;;;;;5004843;28;20181;-47
2021/01/01 07:58:33;;;;;;;26.37;14.20;;;2.60;99.90;;;;;;4995180;28;20195;-46
2021/01/01 08:01:07;;;;;;;27.90;14.97;;;2.60;99.90;;;;;;5002354;28;20231;-47
2021/01/01 08:03:34;;;;;;;30.73;15.67;;;2.60;99.90;;;;;;4999035;28;20390;-48
2021/01/01 08:06:01;;;;;;;26.50;14.87;;;2.60;99.90;;;;;;4996342;28;20211;-47
2021/01/01 08:08:26;;;;;;;30.63;15.63;;;2.70;99.90;;;;;;4993459;28;20299;-51
2021/01/01 08:10:54;;;;;;;33.13;14.77;;;2.60;99.90;;;;;;4998801;28;20316;-46
2021/01/01 08:13:28;;;;;;;29.97;15.07;;;2.60;99.90;;;;;;4996029;28;20274;-46
2021/01/01 08:15:56;;;;;;;33.30;15.10;;;2.60;99.90;;;;;;4993348;28;20196;-46
2021/01/01 08:18:23;;;;;;;31.57;15.30;;;2.70;99.90;;;;;;4995655;28;20534;-51
2021/01/01 08:20:56;;;;;;;29.77;16.20;;;2.70;99.90;;;;;;5012359;28;20266;-49
2021/01/01 08:23:21;;;;;;;28.03;15.33;;;2.70;99.90;;;;;;4990986;28;20254;-51
2021/01/01 08:25:48;;;;;;;28.43;15.20;;;2.70;99.90;;;;;;4977810;28;20199;-48
2021/01/01 08:28:24;;;;;;;33.97;15.53;;;2.70;99.90;;;;;;4999374;28;20243;-50
2021/01/01 08:31:00;;;;;;;30.13;16.20;;;2.80;99.90;;;;;;4992743;28;20215;-52
2021/01/01 08:33:29;;;;;;;28.83;15.93;;;2.80;99.90;;;;;;4995289;28;20215;-51
2021/01/01 08:36:02;;;;;;;27.47;15.63;;;2.80;99.90;;;;;;4997203;28;20180;-54
2021/01/01 08:38:27;;;;;;;25.97;15.43;;;2.90;99.90;;;;;;4988588;28;20200;-48
2021/01/01 08:40:55;;;;;;;28.03;15.13;;;2.90;99.90;;;;;;4999967;28;20209;-51
2021/01/01 08:43:21;;;;;;;30.27;16.17;;;2.90;99.90;;;;;;5001024;28;20228;-46
2021/01/01 08:45:47;;;;;;;33.23;17.53;;;3.00;99.90;;;;;;4983478;28;20196;-49
2021/01/01 08:48:13;;;;;;;29.83;16.23;;;3.00;99.90;;;;;;5000504;28;20238;-53
2021/01/01 08:50:50;;;;;;;30.83;17.27;;;3.00;99.90;;;;;;5000645;28;20204;-46
2021/01/01 08:53:17;;;;;;;32.90;16.70;;;3.00;99.90;;;;;;4990792;28;20188;-54
2021/01/01 08:55:43;;;;;;;33.07;17.33;;;3.00;99.90;;;;;;4999613;28;20180;-46
2021/01/01 08:58:14;;;;;;;35.80;17.93;;;3.00;99.90;;;;;;4995423;28;20266;-53
2021/01/01 09:00:43;;;;;;;29.60;17.67;;;2.90;99.90;;;;;;4992748;28;20228;-50
2021/01/01 09:03:10;;;;;;;34.00;16.23;;;2.90;99.90;;;;;;4997954;28;20219;-50
2021/01/01 09:05:36;;;;;;;37.30;18.17;;;3.00;99.90;;;;;;4999828;28;20184;-51
2021/01/01 09:08:05;;;;;;;38.20;18.10;;;2.90;99.90;;;;;;4993781;28;20213;-51
2021/01/01 09:10:31;;;;;;;36.53;18.63;;;2.90;99.90;;;;;;4989991;28;20973;-51
2021/01/01 09:12:56;;;;;;;41.20;20.23;;;2.90;99.90;;;;;;5004346;28;20193;-49
2021/01/01 09:15:31;;;;;;;40.10;20.73;;;2.90;99.90;;;;;;4996299;28;20695;-54
2021/01/01 09:18:07;;;;;;;44.07;22.37;;;3.00;99.90;;;;;;4999979;28;20242;-48
2021/01/01 09:20:34;;;;;;;45.47;22.03;;;3.00;99.90;;;;;;4998695;28;20238;-48
2021/01/01 09:23:01;;;;;;;49.33;22.90;;;3.00;99.90;;;;;;5004130;28;20254;-46
2021/01/01 09:25:27;;;;;;;43.60;21.63;;;3.00;99.90;;;;;;4988482;28;20200;-46
2021/01/01 09:27:53;;;;;;;49.60;23.87;;;3.10;99.90;;;;;;5001621;28;20207;-46
2021/01/01 09:30:23;;;;;;;52.47;24.73;;;3.10;99.90;;;;;;4996870;28;20211;-53
2021/01/01 09:32:51;;;;;;;47.23;24.53;;;3.10;99.90;;;;;;4995277;28;20255;-48
2021/01/01 09:35:17;;;;;;;50.73;25.00;;;3.10;99.90;;;;;;4994953;28;20435;-57
2021/01/01 09:37:54;;;;;;;52.20;24.20;;;3.20;99.90;;;;;;4996782;28;20193;-49
2021/01/01 09:40:22;;;;;;;47.17;23.50;;;3.20;99.90;;;;;;4986186;28;20223;-54
2021/01/01 09:42:48;;;;;;;51.23;25.13;;;3.20;99.90;;;;;;5001870;28;20180;-53
2021/01/01 09:45:14;;;;;;;45.07;22.40;;;3.20;99.90;;;;;;5001245;28;20218;-53
2021/01/01 09:47:40;;;;;;;40.23;21.10;;;3.20;99.90;;;;;;4992332;28;20270;-51
2021/01/01 09:50:07;;;;;;;41.80;22.17;;;3.20;99.90;;;;;;5001081;28;20201;-54
2021/01/01 09:52:33;;;;;;;45.83;22.60;;;3.20;99.90;;;;;;4998276;28;20185;-51
2021/01/01 09:54:58;;;;;;;42.07;21.73;;;3.30;99.90;;;;;;4990348;28;20216;-49
2021/01/01 09:57:24;;;;;;;38.53;20.67;;;3.30;99.90;;;;;;4999155;28;20184;-53
2021/01/01 09:59:50;;;;;;;36.70;20.20;;;3.30;99.90;;;;;;4995837;28;20224;-50
2021/01/01 10:02:15;;;;;;;39.97;18.97;;;3.30;99.90;;;;;;4993878;28;20196;-55
2021/01/01 10:04:41;;;;;;;37.13;19.47;;;3.30;99.90;;;;;;4996564;28;20197;-51
2021/01/01 10:07:06;;;;;;;37.27;19.80;;;3.30;99.90;;;;;;4994438;28;20216;-48
2021/01/01 10:09:32;;;;;;;39.63;19.00;;;3.30;99.90;;;;;;4999008;28;20279;-52
2021/01/01 10:12:03;;;;;;;37.57;18.93;;;3.30;99.90;;;;;;4985908;28;20188;-48
2021/01/01 10:14:28;;;;;;;41.13;20.47;;;3.30;99.90;;;;;;4998361;28;20234;-49
2021/01/01 10:16:54;;;;;;;36.27;18.87;;;3.30;99.90;;;;;;5002363;28;20192;-48
2021/01/01 10:19:19;;;;;;;36.30;19.03;;;3.30;99.90;;;;;;4989135;28;20201;-47
2021/01/01 10:21:45;;;;;;;36.97;18.90;;;3.30;99.90;;;;;;5001452;28;20204;-46
2021/01/01 10:24:10;;;;;;;34.07;19.70;;;3.30;99.90;;;;;;5001662;28;20294;-46
2021/01/01 10:26:36;;;;;;;40.63;20.20;;;3.30;99.90;;;;;;4990752;28;20311;-49
2021/01/01 10:29:01;;;;;;;36.23;19.00;;;3.40;99.90;;;;;;4997420;28;20199;-52
2021/01/01 10:31:27;;;;;;;37.17;20.97;;;3.40;99.90;;;;;;5001077;28;20208;-49
2021/01/01 10:33:52;;;;;;;35.07;19.33;;;3.40;99.90;;;;;;5000983;28;20185;-48
2021/01/01 10:36:18;;;;;;;32.20;18.40;;;3.50;99.90;;;;;;5002873;28;20188;-52
2021/01/01 10:38:43;;;;;;;31.20;17.87;;;3.50;99.90;;;;;;5003669;28;20288;-46
2021/01/01 10:41:13;;;;;;;36.70;19.27;;;3.50;99.90;;;;;;4999433;28;20284;-51
2021/01/01 10:43:38;;;;;;;34.10;17.73;;;3.50;99.90;;;;;;4989169;28;21091;-45
2021/01/01 10:46:04;;;;;;;36.03;18.33;;;3.50;99.90;;;;;;5011686;28;20180;-50
2021/01/01 10:48:30;;;;;;;35.53;20.20;;;3.50;99.90;;;;;;5004415;28;20227;-47
2021/01/01 10:50:55;;;;;;;31.37;18.37;;;3.50;99.90;;;;;;5000029;28;20228;-47
2021/01/01 10:53:21;;;;;;;35.37;20.47;;;3.50;99.90;;;;;;5007815;28;20780;-50
2021/01/01 10:55:49;;;;;;;36.30;18.90;;;3.60;99.90;;;;;;5012786;28;20192;-50
2021/01/01 10:58:23;;;;;;;34.80;18.13;;;3.60;99.90;;;;;;5003720;28;20197;-53
2021/01/01 11:00:50;;;;;;;36.47;19.37;;;3.60;99.90;;;;;;4997752;28;20221;-47
2021/01/01 11:03:16;;;;;;;34.17;19.90;;;3.60;99.90;;;;;;5002228;28;20554;-47
2021/01/01 11:05:41;;;;;;;33.57;18.73;;;3.60;99.90;;;;;;4999005;28;20196;-48
2021/01/01 11:08:07;;;;;;;37.17;19.10;;;3.50;99.90;;;;;;5003889;28;20270;-50
2021/01/01 11:10:32;;;;;;;40.07;19.43;;;3.50;99.90;;;;;;5000285;28;20732;-45
2021/01/01 11:12:59;;;;;;;33.77;19.73;;;3.50;99.90;;;;;;4989926;28;20405;-46
2021/01/01 12:19:41;;;;;;;38.40;21.13;;;4.20;99.90;;;;;;4994441;28;20550;-52
2021/01/01 12:22:08;;;;;;;35.97;19.37;;;4.20;99.90;;;;;;4980655;28;20185;-47
2021/01/01 12:27:01;;;;;;;38.13;19.40;;;4.30;99.90;;;;;;5002017;28;20204;-49
2021/01/01 12:29:27;;;;;;;34.20;18.87;;;4.30;99.90;;;;;;4989909;28;20835;-47
2021/01/01 12:31:53;;;;;;;34.07;18.00;;;4.40;99.90;;;;;;5004015;28;20243;-50
2021/01/01 12:34:19;;;;;;;34.80;18.70;;;4.30;99.90;;;;;;4990471;28;20192;-48
2021/01/01 12:36:44;;;;;;;27.87;16.30;;;4.40;99.90;;;;;;5012489;28;20206;-53
2021/01/01 12:39:10;;;;;;;31.30;16.63;;;4.40;99.90;;;;;;4995121;28;20192;-56
2021/01/01 12:41:36;;;;;;;28.40;16.23;;;4.40;99.90;;;;;;4996721;28;20557;-56
2021/01/01 12:44:01;;;;;;;31.23;16.37;;;4.40;99.90;;;;;;5007232;28;20188;-57
2021/01/01 12:46:27;;;;;;;30.53;16.30;;;4.40;99.90;;;;;;4998512;28;20204;-54
2021/01/01 12:48:52;;;;;;;30.97;17.20;;;4.40;99.90;;;;;;5009461;28;20602;-53
2021/01/01 12:51:18;;;;;;;28.63;17.03;;;4.30;99.90;;;;;;5013422;28;20235;-51
2021/01/01 12:53:44;;;;;;;32.73;16.47;;;4.30;99.90;;;;;;4999631;28;20351;-53
2021/01/01 12:56:10;;;;;;;31.23;17.33;;;4.30;99.90;;;;;;5005299;28;20196;-49
2021/01/01 12:58:35;;;;;;;31.07;16.33;;;4.40;99.90;;;;;;4998535;28;20202;-53
2021/01/01 13:01:01;;;;;;;28.70;16.40;;;4.40;99.90;;;;;;4997035;28;20298;-51
2021/01/01 13:03:26;;;;;;;32.07;18.13;;;4.40;99.90;;;;;;4996793;28;20342;-55
2021/01/01 13:05:52;;;;;;;34.60;17.77;;;4.40;99.90;;;;;;5003136;28;20614;-55
2021/01/01 13:08:17;;;;;;;32.17;17.30;;;4.40;99.90;;;;;;5009717;28;20201;-49
2021/01/01 13:10:43;;;;;;;29.23;17.83;;;4.50;99.90;;;;;;4996209;28;20207;-49
2021/01/01 13:13:09;;;;;;;27.17;16.70;;;4.40;99.90;;;;;;5012245;28;20261;-50
2021/01/01 13:15:34;;;;;;;27.23;16.27;;;4.50;99.90;;;;;;4993792;28;20193;-55
2021/01/01 13:18:00;;;;;;;27.27;15.83;;;4.50;99.90;;;;;;5009591;28;20180;-53
2021/01/01 13:20:25;;;;;;;27.80;15.47;;;4.50;99.90;;;;;;4994463;28;20205;-51
2021/01/01 13:22:51;;;;;;;27.53;15.33;;;4.50;99.90;;;;;;4998699;28;20223;-49
2021/01/01 13:25:19;;;;;;;26.03;16.33;;;4.50;99.90;;;;;;5000167;28;20177;-51
2021/01/01 13:27:45;;;;;;;28.87;14.87;;;4.50;99.90;;;;;;4994955;28;20944;-54
2021/01/01 13:30:11;;;;;;;27.20;14.10;;;4.50;99.90;;;;;;5002313;28;20213;-51
2021/01/01 13:32:37;;;;;;;23.37;14.33;;;4.50;99.90;;;;;;4988624;28;20184;-49
2021/01/01 13:35:03;;;;;;;23.27;14.60;;;4.50;99.90;;;;;;4999513;28;20181;-47
2021/01/01 13:37:32;;;;;;;23.70;14.47;;;4.50;99.90;;;;;;4998448;28;20259;-54
2021/01/01 13:39:57;;;;;;;27.40;15.33;;;4.50;99.90;;;;;;5001421;28;20295;-46
2021/01/01 13:42:22;;;;;;;28.73;16.27;;;4.50;99.90;;;;;;4993905;28;20239;-54